createdAt,value
2023-05-04T16:01:57.472Z,70.75
2023-05-04T16:03:31.384Z,70.40
2023-05-04T16:05:03.513Z,67.40
2023-05-04T16:06:35.458Z,72.00
2023-05-04T16:08:07.328Z,66.20
2023-05-04T16:09:39.165Z,69.40
2023-05-04T16:11:11.257Z,68.20
2023-05-04T16:12:43.301Z,69.40
2023-05-04T16:14:15.642Z,65.60
2023-05-04T16:15:51.480Z,67.80
2023-05-04T16:17:23.416Z,72.80
2023-05-04T16:18:55.543Z,74.60
2023-05-04T16:20:28.564Z,73.80
2023-05-04T16:22:00.450Z,69.00
2023-05-04T16:23:32.323Z,78.75
2023-05-04T16:25:05.185Z,75.00
2023-05-04T16:26:37.065Z,72.75
2023-05-04T16:28:09.014Z,80.25
2023-05-04T16:29:40.931Z,84.75
2023-05-04T16:31:13.187Z,77.25
2023-05-04T16:32:45.138Z,87.75
2023-05-04T16:34:17.049Z,92.00
2023-05-04T16:35:49.107Z,90.75
2023-05-04T16:37:21.144Z,83.75
2023-05-04T16:38:52.974Z,89.50
2023-05-04T16:40:25.268Z,90.50
2023-05-04T16:41:58.179Z,82.25
2023-05-04T16:43:30.143Z,92.00
2023-05-04T16:45:02.072Z,91.75
2023-05-04T16:46:34.068Z,90.50
2023-05-04T16:48:06.582Z,88.25
2023-05-04T16:49:38.738Z,93.25
2023-05-04T16:51:10.617Z,91.50
2023-05-04T16:52:42.548Z,90.50
2023-05-04T16:54:14.723Z,124.75
2023-05-04T16:55:47.013Z,136.67
2023-05-04T16:57:18.848Z,143.33
2023-05-04T16:58:50.741Z,109.25
2023-05-04T17:00:22.695Z,91.25
2023-05-04T17:01:54.709Z,96.25
2023-05-04T17:03:26.703Z,104.25
2023-05-04T17:04:58.702Z,101.25
2023-05-04T17:06:31.277Z,106.50
2023-05-04T17:08:03.256Z,90.75
2023-05-04T17:09:35.201Z,103.00
2023-05-04T17:11:07.035Z,105.50
2023-05-04T17:12:39.193Z,102.00
2023-05-04T17:14:11.245Z,109.25
2023-05-04T17:15:43.380Z,104.25
2023-05-04T17:17:16.336Z,103.50
2023-05-04T17:18:48.260Z,102.25
2023-05-04T17:20:21.821Z,101.00
2023-05-04T17:21:53.681Z,100.00
2023-05-04T17:23:25.677Z,104.25
2023-05-04T17:24:57.572Z,106.25
2023-05-04T17:26:29.833Z,96.00
2023-05-04T17:28:01.729Z,102.00
2023-05-04T17:29:33.603Z,109.25
2023-05-04T17:31:05.569Z,95.75
2023-05-04T17:32:38.476Z,102.25
2023-05-04T17:34:10.388Z,97.25
2023-05-04T17:35:42.271Z,105.00
2023-05-04T17:37:14.114Z,93.25
2023-05-04T17:38:46.100Z,98.25
2023-05-04T17:40:18.114Z,100.25
2023-05-04T17:41:50.029Z,95.25
2023-05-04T17:43:21.939Z,98.75
2023-05-04T17:44:53.847Z,93.75
2023-05-04T17:46:26.069Z,92.25
2023-05-04T17:47:58.129Z,98.75
2023-05-04T17:49:30.022Z,91.25
2023-05-04T17:51:01.897Z,90.00
2023-05-04T17:52:33.781Z,94.25
2023-05-04T17:54:05.829Z,108.50
2023-05-04T17:55:37.707Z,94.50
2023-05-04T17:57:09.627Z,145.00
2023-05-04T17:58:41.477Z,103.00
2023-05-04T18:00:14.033Z,109.00
2023-05-04T18:01:46.081Z,100.50
2023-05-04T18:03:18.242Z,109.25
2023-05-04T18:04:50.111Z,100.25
2023-05-04T18:06:22.002Z,106.00
2023-05-04T18:07:53.886Z,111.75
2023-05-04T18:09:25.733Z,103.75
2023-05-04T18:10:57.650Z,106.50
2023-05-04T18:12:29.517Z,110.00
2023-05-04T18:14:01.612Z,106.25
2023-05-04T18:15:33.597Z,107.00
2023-05-04T18:17:06.293Z,110.00
2023-05-04T18:18:38.232Z,107.75
2023-05-04T18:20:12.800Z,101.75
2023-05-04T18:21:44.632Z,105.25
2023-05-04T18:23:16.556Z,115.25
2023-05-04T18:24:49.924Z,136.67
2023-05-04T18:26:22.850Z,126.50
2023-05-04T18:27:54.997Z,127.33
2023-05-04T18:29:26.817Z,145.00
2023-05-04T18:30:58.890Z,146.67
2023-05-04T18:32:30.813Z,141.00
2023-05-04T18:34:04.302Z,139.33
2023-05-04T18:35:36.188Z,135.33
2023-05-04T18:37:08.324Z,120.25
2023-05-04T18:38:41.128Z,109.75
2023-05-04T18:40:13.848Z,96.25
2023-05-04T18:41:46.403Z,95.75
2023-05-04T18:43:22.038Z,98.25
2023-05-04T18:44:54.451Z,91.25
2023-05-04T18:46:26.419Z,91.50
2023-05-04T18:47:58.482Z,79.75
2023-05-04T18:49:30.516Z,75.50
2023-05-04T18:51:02.950Z,76.20
2023-05-04T18:52:35.236Z,74.75
2023-05-04T18:54:07.485Z,70.80
2023-05-04T18:55:39.326Z,66.40
2023-05-04T18:57:11.331Z,48.50
2023-05-04T18:58:43.290Z,44.00
2023-05-04T19:00:15.381Z,37.25
2023-05-04T19:01:47.262Z,38.75
2023-05-04T19:03:19.268Z,46.00
2023-05-04T19:04:51.406Z,35.25
2023-05-04T19:06:23.278Z,35.00
2023-05-04T19:07:55.098Z,34.00
2023-05-04T19:09:27.000Z,32.80
2023-05-04T19:10:59.551Z,33.20
2023-05-04T19:12:31.608Z,31.20
2023-05-04T19:14:03.532Z,30.20
2023-05-04T19:15:35.578Z,33.20
2023-05-04T19:17:08.107Z,33.20
2023-05-04T19:18:40.040Z,40.25
2023-05-04T19:20:12.008Z,38.00
2023-05-04T19:21:44.152Z,40.50
2023-05-04T19:23:16.175Z,42.25
2023-05-04T19:24:51.748Z,47.50
2023-05-04T19:26:23.654Z,44.50
2023-05-04T19:27:55.526Z,45.00
2023-05-04T19:29:28.513Z,51.25
2023-05-04T19:31:00.644Z,51.00
2023-05-04T19:32:32.970Z,47.50
2023-05-04T19:34:05.750Z,54.75
2023-05-04T19:35:37.677Z,56.75
2023-05-04T19:37:09.544Z,57.75
2023-05-04T19:38:41.564Z,53.50
2023-05-04T19:40:13.534Z,56.25
2023-05-04T19:41:45.480Z,52.00
2023-05-04T19:43:17.420Z,52.00
2023-05-04T19:44:49.291Z,57.50
2023-05-04T19:46:21.473Z,56.50
2023-05-04T19:47:53.476Z,53.50
2023-05-04T19:49:25.568Z,58.25
2023-05-04T19:50:57.656Z,63.75
2023-05-04T19:52:29.510Z,65.50
2023-05-04T19:54:01.726Z,60.75
2023-05-04T19:55:33.942Z,65.40
2023-05-04T19:57:05.780Z,64.20
2023-05-04T19:58:38.708Z,75.20
2023-05-04T20:00:11.058Z,69.80
2023-05-04T20:01:45.654Z,70.80
2023-05-04T20:03:18.727Z,68.40
2023-05-04T20:04:51.453Z,73.60
2023-05-04T20:06:23.330Z,71.40
2023-05-04T20:07:55.196Z,68.80
2023-05-04T20:09:27.055Z,74.00
2023-05-04T20:10:59.000Z,71.40
2023-05-04T20:12:30.979Z,75.00
2023-05-04T20:14:02.868Z,73.60
2023-05-04T20:15:34.703Z,77.75
2023-05-04T20:17:07.232Z,71.20
2023-05-04T20:18:39.136Z,68.60
2023-05-04T20:20:11.665Z,71.20
2023-05-04T20:21:43.543Z,68.20
2023-05-04T20:23:15.470Z,69.20
2023-05-04T20:24:47.378Z,66.60
2023-05-04T20:26:19.547Z,65.20
2023-05-04T20:27:52.861Z,67.00
2023-05-04T20:29:24.850Z,66.60
2023-05-04T20:30:57.490Z,70.60
2023-05-04T20:32:31.301Z,71.20
2023-05-04T20:34:03.241Z,67.80
2023-05-04T20:35:35.216Z,75.00
2023-05-04T20:37:07.515Z,68.80
2023-05-04T20:38:39.556Z,73.80
2023-05-04T20:40:12.344Z,76.00
2023-05-04T20:41:44.363Z,73.00
2023-05-04T20:43:16.380Z,79.60
2023-05-04T20:44:48.231Z,72.60
2023-05-04T20:46:20.130Z,73.80
2023-05-04T20:47:52.111Z,71.80
2023-05-04T20:49:24.054Z,76.20
2023-05-04T20:51:06.545Z,73.80
2023-05-04T20:52:45.091Z,85.50
2023-05-04T20:54:17.341Z,80.75
2023-05-04T20:55:49.210Z,86.00
2023-05-04T20:57:21.179Z,78.50
2023-05-04T20:58:53.274Z,75.50
2023-05-04T21:00:25.425Z,79.00
2023-05-04T21:01:57.485Z,81.75
2023-05-04T21:03:29.530Z,80.25
2023-05-04T21:05:01.428Z,88.50
2023-05-04T21:06:33.358Z,89.50
2023-05-04T21:08:05.623Z,89.50
2023-05-04T21:09:37.464Z,86.50
2023-05-04T21:11:09.270Z,86.50
2023-05-04T21:12:41.660Z,91.00
2023-05-04T21:14:13.646Z,87.50
2023-05-04T21:15:45.962Z,84.00
2023-05-04T21:17:17.888Z,90.75
2023-05-04T21:18:49.792Z,109.25
2023-05-04T21:20:21.764Z,96.50
2023-05-04T21:21:53.611Z,84.00
2023-05-04T21:23:26.483Z,81.25
2023-05-04T21:24:58.437Z,89.25
2023-05-04T21:26:30.713Z,79.00
2023-05-04T21:28:02.579Z,72.50
2023-05-04T21:29:34.417Z,82.00
2023-05-04T21:31:07.575Z,79.25
2023-05-04T21:32:39.505Z,77.25
2023-05-04T21:34:11.398Z,84.50
2023-05-04T21:35:43.291Z,84.25
2023-05-04T21:37:15.198Z,76.50
2023-05-04T21:38:47.186Z,80.75
2023-05-04T21:40:19.082Z,82.50
2023-05-04T21:41:50.913Z,79.75
2023-05-04T21:43:22.782Z,84.75
2023-05-04T21:44:57.871Z,90.75
2023-05-04T21:46:29.761Z,87.00
2023-05-04T21:48:03.708Z,77.75
2023-05-04T21:49:35.617Z,79.00
2023-05-04T21:51:07.589Z,81.50
2023-05-04T21:52:39.568Z,79.50
2023-05-04T21:54:11.424Z,82.25
2023-05-04T21:55:44.060Z,85.00
2023-05-04T21:57:16.052Z,76.75
2023-05-04T21:58:47.921Z,81.25
2023-05-04T22:00:19.892Z,82.50
2023-05-04T22:01:51.780Z,80.50
2023-05-04T22:03:23.670Z,84.50
2023-05-04T22:04:55.649Z,75.50
2023-05-04T22:06:27.484Z,71.75
2023-05-04T22:08:01.005Z,77.00
2023-05-04T22:09:32.873Z,82.00
2023-05-04T22:11:04.798Z,75.25
2023-05-04T22:12:36.667Z,71.00
2023-05-04T22:14:08.512Z,67.00
2023-05-04T22:15:49.500Z,73.80
2023-05-04T22:17:22.327Z,70.20
2023-05-04T22:18:54.209Z,71.20
2023-05-04T22:20:27.895Z,81.50
2023-05-04T22:21:59.719Z,70.40
2023-05-04T22:23:31.597Z,71.40
2023-05-04T22:25:03.566Z,67.20
2023-05-04T22:26:35.847Z,69.00
2023-05-04T22:28:07.710Z,75.40
2023-05-04T22:29:39.619Z,67.20
2023-05-04T22:31:11.489Z,68.80
2023-05-04T22:32:44.593Z,60.00
2023-05-04T22:34:16.430Z,62.25
